Portada
METAR-TAF:

METAR-TAF

Aeropuertos :

Hagi, Japón

latitud: 34-40N, longitud: 131-48E, altitud: 54 m

Observación

El informe se hizo hace 1 hora y 28 minutos, a las 01:00 UTC
Viento 4 kt del sur-sureste
Temperatura 14°C
Humedad 47%
Presión 1021 hPa
Visibilidad 10 km o más
sin nubes por debajo de 1500 m y sin presencia de cumulonimbus.

METAR: RJOW 030100Z 15004KT CAVOK 14/03 Q1021

Hora: 11:28 (02:28 UTC)


TAF: falta

Observaciones y pronósticos meteorológicos de más de 4000 aeropuertos (mensajes METAR y TAF).

Los puntos amarillos y rojos representan las estaciones disponibles.

Ponga el ratón en el punto deseado para ver el nombre de la estación.

Haga clic para ver las observaciones y los pronósticos meteorológicos.

Para cambiar el mapa : haga clic en los botones verdes con una cruz de color negro para hacer un zoom, en el botón verde con un guión para alejar o en las flechas verdes para mapas adyacentes.


METAR-TAF: